createdAt,value
2019-01-17T00:00:07.933Z,11.70
2019-01-17T00:02:55.512Z,14.43
2019-01-17T00:08:19.174Z,11.28
2019-01-17T00:11:06.915Z,11.10
2019-01-17T00:16:34.022Z,11.50
2019-01-17T00:19:21.524Z,11.05
2019-01-17T00:27:23.923Z,12.37
2019-01-17T00:33:00.516Z,12.63
2019-01-17T00:35:48.255Z,11.63
2019-01-17T00:38:35.763Z,14.68
2019-01-17T00:44:12.440Z,13.15
2019-01-17T00:46:59.947Z,13.22
2019-01-17T00:49:47.461Z,11.95
2019-01-17T00:55:45.093Z,11.18
2019-01-17T00:58:32.687Z,11.12
2019-01-17T01:01:20.199Z,11.53
2019-01-17T01:04:27.056Z,11.30
2019-01-17T01:07:14.572Z,10.70
2019-01-17T01:10:02.329Z,10.95
2019-01-17T01:12:49.848Z,10.70
2019-01-17T01:15:58.140Z,11.45
2019-01-17T01:18:45.658Z,11.10
2019-01-17T01:21:33.163Z,10.75
2019-01-17T01:24:20.681Z,11.05
2019-01-17T01:27:08.186Z,10.60
2019-01-17T01:29:55.941Z,10.65
2019-01-17T01:35:32.553Z,9.60
2019-01-17T01:38:20.058Z,10.00
2019-01-17T01:41:07.578Z,10.63
2019-01-17T01:43:55.324Z,10.43
2019-01-17T01:49:18.172Z,11.43
2019-01-17T01:54:22.319Z,10.18
2019-01-17T01:56:50.643Z,10.53
2019-01-17T01:59:19.045Z,9.88
2019-01-17T02:01:47.499Z,10.53
2019-01-17T02:04:15.901Z,11.38
2019-01-17T02:06:44.306Z,10.72
2019-01-17T02:09:12.715Z,10.95
2019-01-17T02:11:41.116Z,12.50
2019-01-17T02:14:49.425Z,11.90
2019-01-17T02:20:46.905Z,11.65
2019-01-17T02:23:15.296Z,11.57
2019-01-17T02:25:43.704Z,11.95
2019-01-17T02:28:12.105Z,13.18
2019-01-17T02:30:40.807Z,11.63
2019-01-17T02:33:09.224Z,12.20
2019-01-17T02:35:37.603Z,13.20
2019-01-17T02:38:06.080Z,13.00
2019-01-17T02:40:34.473Z,13.28
2019-01-17T02:43:03.208Z,12.45
2019-01-17T02:45:31.673Z,13.32
2019-01-17T02:48:00.077Z,13.60
2019-01-17T02:50:28.775Z,13.25
2019-01-17T02:52:57.185Z,13.38
2019-01-17T02:55:25.574Z,13.38
2019-01-17T02:57:53.981Z,13.95
2019-01-17T03:00:22.392Z,12.13
2019-01-17T03:02:50.791Z,14.33
2019-01-17T03:05:19.195Z,12.60
2019-01-17T03:07:47.592Z,12.55
2019-01-17T03:10:55.920Z,12.82
2019-01-17T03:13:24.308Z,12.60
2019-01-17T03:15:52.706Z,13.75
2019-01-17T03:18:21.104Z,12.53
2019-01-17T03:20:49.594Z,12.55
2019-01-17T03:23:17.983Z,13.93
2019-01-17T03:25:46.707Z,13.72
2019-01-17T03:28:15.411Z,13.43
2019-01-17T03:30:44.090Z,13.95
2019-01-17T03:33:12.769Z,14.83
2019-01-17T03:35:41.454Z,13.75
2019-01-17T03:38:10.148Z,12.30
2019-01-17T03:43:32.903Z,12.90
2019-01-17T03:46:01.296Z,13.30
2019-01-17T03:48:29.971Z,11.80
2019-01-17T03:50:58.660Z,11.03
2019-01-17T03:53:27.287Z,12.47
2019-01-17T03:58:35.476Z,12.13
2019-01-17T04:01:03.932Z,12.80
2019-01-17T04:03:32.325Z,12.50
2019-01-17T04:06:01.019Z,12.28
2019-01-17T04:08:29.412Z,12.82
2019-01-17T04:10:57.809Z,12.20
2019-01-17T04:13:26.220Z,13.35
2019-01-17T04:15:54.620Z,11.55
2019-01-17T04:18:23.017Z,11.70
2019-01-17T04:21:10.769Z,11.68
2019-01-17T04:23:39.161Z,11.88
2019-01-17T04:26:07.552Z,11.05
2019-01-17T04:28:35.961Z,12.68
2019-01-17T04:31:04.488Z,11.90
2019-01-17T04:33:32.886Z,10.93
2019-01-17T04:36:01.297Z,11.48
2019-01-17T04:38:29.690Z,10.63
2019-01-17T04:41:17.739Z,10.08
2019-01-17T04:43:46.131Z,10.45
2019-01-17T04:46:14.535Z,10.70
2019-01-17T04:48:42.932Z,10.70
2019-01-17T04:51:11.663Z,9.93
2019-01-17T04:53:40.055Z,9.58
2019-01-17T04:56:08.463Z,10.05
2019-01-17T04:58:37.107Z,9.55
2019-01-17T05:01:05.579Z,9.88
2019-01-17T05:03:33.985Z,9.70
2019-01-17T05:06:02.665Z,10.23
2019-01-17T05:08:31.062Z,10.35
2019-01-17T05:10:59.468Z,10.23
2019-01-17T05:13:27.878Z,10.08
2019-01-17T05:15:56.587Z,9.70
2019-01-17T05:18:24.981Z,10.05
2019-01-17T05:20:53.421Z,10.48
2019-01-17T05:23:21.814Z,9.23
2019-01-17T05:25:50.206Z,9.10
2019-01-17T05:28:18.897Z,10.10
2019-01-17T05:30:47.301Z,10.30
2019-01-17T05:33:15.961Z,9.75
2019-01-17T05:35:44.371Z,8.50
2019-01-17T05:38:12.756Z,9.40
2019-01-17T05:40:41.396Z,10.20
2019-01-17T05:43:09.802Z,9.23
2019-01-17T05:45:38.204Z,9.90
2019-01-17T05:48:06.598Z,9.93
2019-01-17T05:50:34.999Z,9.50
2019-01-17T05:53:03.460Z,9.10
2019-01-17T05:55:32.095Z,9.15
2019-01-17T05:58:00.772Z,10.58
2019-01-17T06:00:29.556Z,10.30
2019-01-17T06:02:57.944Z,10.30
2019-01-17T06:05:26.721Z,11.63
2019-01-17T06:07:55.118Z,10.95
2019-01-17T06:10:23.506Z,10.60
2019-01-17T06:12:52.984Z,11.40
2019-01-17T06:15:23.209Z,11.03
2019-01-17T06:17:51.599Z,11.57
2019-01-17T06:20:20.148Z,12.43
2019-01-17T06:22:48.538Z,11.65
2019-01-17T06:25:16.931Z,11.50
2019-01-17T06:27:45.329Z,12.10
2019-01-17T06:30:15.267Z,12.40
2019-01-17T06:32:43.733Z,12.33
2019-01-17T06:35:12.874Z,12.40
2019-01-17T06:37:41.597Z,12.78
2019-01-17T06:40:13.049Z,11.85
2019-01-17T06:42:41.464Z,12.33
2019-01-17T06:45:09.862Z,12.58
2019-01-17T06:47:38.253Z,13.03
2019-01-17T06:50:09.572Z,12.85
2019-01-17T06:52:38.027Z,13.40
2019-01-17T06:55:08.529Z,14.50
2019-01-17T06:57:37.043Z,12.70
2019-01-17T07:00:11.221Z,12.60
2019-01-17T07:02:39.683Z,13.83
2019-01-17T07:05:08.909Z,13.23
2019-01-17T07:07:37.364Z,12.77
2019-01-17T07:10:11.950Z,13.30
2019-01-17T07:12:40.354Z,13.50
2019-01-17T07:15:09.997Z,13.47
2019-01-17T07:17:38.421Z,13.00
2019-01-17T07:20:09.838Z,14.40
2019-01-17T07:22:38.234Z,13.18
2019-01-17T07:25:08.663Z,12.47
2019-01-17T07:27:37.064Z,12.77
2019-01-17T07:30:17.323Z,12.80
2019-01-17T07:32:45.748Z,11.63
2019-01-17T07:35:14.203Z,12.43
2019-01-17T07:37:42.596Z,11.67
2019-01-17T07:40:12.747Z,13.07
2019-01-17T07:42:41.130Z,12.00
2019-01-17T07:45:18.223Z,12.00
2019-01-17T07:47:46.878Z,11.50
2019-01-17T07:50:15.397Z,12.30
2019-01-17T07:52:43.868Z,11.70
2019-01-17T07:55:12.507Z,12.20
2019-01-17T07:57:40.951Z,11.23
2019-01-17T08:00:18.123Z,11.17
2019-01-17T08:02:46.522Z,11.35
2019-01-17T08:05:15.258Z,12.10
2019-01-17T08:07:43.980Z,10.60
2019-01-17T08:10:15.182Z,11.00
2019-01-17T08:12:43.949Z,11.55
2019-01-17T08:15:13.891Z,10.00
2019-01-17T08:17:42.359Z,10.80
2019-01-17T08:20:19.122Z,11.13
2019-01-17T08:22:47.656Z,10.85
2019-01-17T08:25:16.219Z,10.57
2019-01-17T08:27:44.753Z,9.67
2019-01-17T08:30:22.281Z,10.33
2019-01-17T08:32:50.698Z,10.60
2019-01-17T08:35:19.456Z,9.77
2019-01-17T08:37:47.851Z,10.50
2019-01-17T08:40:22.231Z,10.13
2019-01-17T08:42:50.944Z,10.87
2019-01-17T08:45:19.395Z,9.10
2019-01-17T08:47:48.108Z,9.67
2019-01-17T08:50:17.610Z,9.80
2019-01-17T08:52:46.404Z,10.10
2019-01-17T08:55:14.877Z,9.53
2019-01-17T08:57:43.339Z,10.30
2019-01-17T09:00:25.757Z,10.00
2019-01-17T09:02:54.212Z,8.90
2019-01-17T09:05:22.602Z,10.10
2019-01-17T09:07:51.010Z,9.60
2019-01-17T09:10:22.434Z,9.70
2019-01-17T09:12:51.262Z,9.83
2019-01-17T09:15:22.513Z,10.00
2019-01-17T09:17:50.987Z,11.57
2019-01-17T09:20:19.389Z,9.57
2019-01-17T09:22:47.770Z,9.20
2019-01-17T09:25:17.423Z,9.23
2019-01-17T09:27:46.134Z,10.13
2019-01-17T09:30:22.169Z,9.00
2019-01-17T09:32:50.977Z,9.27
2019-01-17T09:35:20.073Z,8.07
2019-01-17T09:37:48.942Z,8.30
2019-01-17T09:40:22.350Z,7.90
2019-01-17T09:42:50.901Z,8.13
2019-01-17T09:45:19.435Z,7.30
2019-01-17T09:47:47.971Z,8.10
2019-01-17T09:50:18.309Z,8.67
2019-01-17T09:52:47.226Z,7.00
2019-01-17T09:55:16.018Z,6.90
2019-01-17T09:57:44.400Z,8.00
2019-01-17T10:00:16.262Z,7.00
2019-01-17T10:02:44.647Z,6.33
2019-01-17T10:05:13.097Z,6.70
2019-01-17T10:07:41.562Z,7.03
2019-01-17T10:10:16.012Z,6.50
2019-01-17T10:12:44.460Z,5.90
2019-01-17T10:15:16.027Z,6.00
2019-01-17T10:17:53.435Z,5.40
2019-01-17T10:20:27.748Z,5.67
2019-01-17T10:23:05.074Z,6.07
2019-01-17T10:25:44.041Z,6.00
2019-01-17T10:28:33.736Z,5.80
2019-01-17T10:31:24.579Z,5.47
2019-01-17T10:33:56.029Z,4.60
2019-01-17T10:36:48.436Z,5.07
2019-01-17T10:39:34.717Z,5.20
2019-01-17T10:42:27.341Z,4.63
2019-01-17T10:45:01.366Z,4.93
2019-01-17T10:47:50.643Z,5.03
2019-01-17T10:50:31.205Z,4.50
2019-01-17T10:53:23.985Z,5.17
2019-01-17T10:56:10.731Z,5.07
2019-01-17T10:58:48.453Z,4.87
2019-01-17T11:01:41.088Z,4.60
2019-01-17T11:04:49.439Z,4.60
2019-01-17T11:07:56.655Z,4.77
2019-01-17T11:11:04.939Z,5.00
2019-01-17T11:14:11.918Z,4.67
2019-01-17T11:17:20.262Z,4.73
2019-01-17T11:20:27.239Z,5.00
2019-01-17T11:23:35.602Z,4.73
2019-01-17T11:26:43.883Z,4.50
2019-01-17T11:29:50.857Z,4.43
2019-01-17T11:32:58.063Z,4.70
2019-01-17T11:36:06.362Z,4.83
2019-01-17T11:39:14.721Z,4.47
2019-01-17T11:42:21.700Z,4.57
2019-01-17T11:45:30.052Z,5.00
2019-01-17T11:48:37.014Z,4.77
2019-01-17T11:51:43.991Z,4.50
2019-01-17T11:54:52.279Z,4.20
2019-01-17T11:57:59.256Z,4.80
2019-01-17T12:01:07.838Z,4.37
2019-01-17T12:04:14.828Z,4.67
2019-01-17T12:06:43.482Z,4.67
2019-01-17T12:09:11.865Z,4.60
2019-01-17T12:11:40.271Z,4.33
2019-01-17T12:14:08.928Z,4.30
2019-01-17T12:16:37.314Z,5.20
2019-01-17T12:19:06.095Z,3.87
2019-01-17T12:22:14.390Z,4.40
2019-01-17T12:24:42.792Z,3.93
2019-01-17T12:27:11.172Z,4.60
2019-01-17T12:29:39.555Z,3.63
2019-01-17T12:32:27.290Z,4.17
2019-01-17T12:34:55.963Z,4.00
2019-01-17T12:37:24.358Z,4.17
2019-01-17T12:39:52.752Z,4.60
2019-01-17T12:42:21.126Z,3.47
2019-01-17T12:44:49.763Z,3.90
2019-01-17T12:47:18.137Z,4.40
2019-01-17T12:49:46.531Z,4.40
2019-01-17T12:52:14.914Z,4.37
2019-01-17T12:54:43.290Z,4.30
2019-01-17T12:57:11.689Z,4.77
2019-01-17T12:59:40.374Z,4.30
2019-01-17T13:02:08.822Z,4.80
2019-01-17T13:04:37.213Z,4.30
2019-01-17T13:07:05.910Z,4.47
2019-01-17T13:09:34.309Z,4.50
2019-01-17T13:12:03.077Z,4.70
2019-01-17T13:14:31.765Z,4.30
2019-01-17T13:17:00.158Z,3.93
2019-01-17T13:19:28.614Z,4.40
2019-01-17T13:21:57.006Z,4.30
2019-01-17T13:24:25.457Z,4.00
2019-01-17T13:26:53.826Z,4.23
2019-01-17T13:29:22.228Z,4.70
2019-01-17T13:31:50.607Z,4.07
2019-01-17T13:34:18.982Z,3.93
2019-01-17T13:36:47.682Z,4.20
2019-01-17T13:39:16.123Z,4.83
2019-01-17T13:41:44.509Z,4.33
2019-01-17T13:44:12.905Z,4.60
2019-01-17T13:47:00.621Z,4.10
2019-01-17T13:49:29.014Z,5.33
2019-01-17T13:51:57.723Z,4.60
2019-01-17T13:54:26.114Z,4.50
2019-01-17T13:56:54.581Z,4.10
2019-01-17T13:59:22.959Z,6.83
2019-01-17T14:01:51.350Z,4.40
2019-01-17T14:04:19.781Z,3.90
2019-01-17T14:06:48.407Z,4.20
2019-01-17T14:09:16.805Z,5.20
2019-01-17T14:11:45.185Z,4.37
2019-01-17T14:14:13.600Z,4.40
2019-01-17T14:16:42.221Z,4.60
2019-01-17T14:19:10.603Z,3.80
2019-01-17T14:21:38.977Z,4.50
2019-01-17T14:24:07.386Z,5.12
2019-01-17T14:26:36.052Z,4.00
2019-01-17T14:29:04.609Z,3.98
2019-01-17T14:31:33.317Z,4.50
2019-01-17T14:34:01.697Z,3.60
2019-01-17T14:36:30.078Z,3.60
2019-01-17T14:38:58.471Z,3.63
2019-01-17T14:41:46.488Z,4.10
2019-01-17T14:44:15.191Z,3.80
2019-01-17T14:46:43.574Z,4.22
2019-01-17T14:49:12.240Z,4.43
2019-01-17T14:51:40.632Z,4.00
2019-01-17T14:54:09.078Z,3.73
2019-01-17T14:56:37.465Z,3.85
2019-01-17T14:59:05.863Z,4.33
2019-01-17T15:01:34.247Z,4.15
2019-01-17T15:04:02.694Z,4.10
2019-01-17T15:06:31.405Z,3.40
2019-01-17T15:08:59.803Z,3.67
2019-01-17T15:11:28.186Z,3.75
2019-01-17T15:13:56.844Z,3.73
2019-01-17T15:16:25.236Z,3.37
2019-01-17T15:18:53.853Z,3.70
2019-01-17T15:21:22.254Z,3.87
2019-01-17T15:23:50.643Z,3.92
2019-01-17T15:26:19.026Z,4.00
2019-01-17T15:28:47.522Z,3.80
2019-01-17T15:31:15.912Z,4.25
2019-01-17T15:33:44.298Z,3.70
2019-01-17T15:36:12.692Z,4.23
2019-01-17T15:38:41.349Z,3.80
2019-01-17T15:41:09.734Z,4.47
2019-01-17T15:43:38.142Z,4.42
2019-01-17T15:46:06.900Z,4.25
2019-01-17T15:48:35.583Z,5.70
2019-01-17T15:51:04.118Z,4.08
2019-01-17T15:53:45.127Z,5.80
2019-01-17T15:56:13.827Z,7.75
2019-01-17T15:58:42.216Z,5.55
2019-01-17T16:01:10.612Z,4.20
2019-01-17T16:03:39.012Z,3.80
2019-01-17T16:06:07.393Z,4.70
2019-01-17T16:08:35.798Z,4.42
2019-01-17T16:11:04.178Z,5.00
2019-01-17T16:13:32.585Z,5.15
2019-01-17T16:16:00.984Z,4.23
2019-01-17T16:18:29.645Z,5.05
2019-01-17T16:20:58.331Z,4.67
2019-01-17T16:23:26.735Z,4.50
2019-01-17T16:25:55.120Z,3.65
2019-01-17T16:28:23.788Z,4.33
2019-01-17T16:30:52.463Z,4.10
2019-01-17T16:33:20.867Z,6.70
2019-01-17T16:35:49.538Z,3.80
2019-01-17T16:38:18.015Z,4.10
2019-01-17T16:40:46.690Z,3.87
2019-01-17T16:43:15.076Z,3.15
2019-01-17T16:45:43.766Z,3.80
2019-01-17T16:48:12.162Z,3.60
2019-01-17T16:50:40.558Z,3.70
2019-01-17T16:53:09.184Z,3.33
2019-01-17T16:55:37.853Z,3.75
2019-01-17T16:58:06.482Z,3.90
2019-01-17T17:01:14.828Z,3.42
2019-01-17T17:03:43.205Z,3.67
2019-01-17T17:06:31.192Z,3.85
2019-01-17T17:08:59.576Z,3.60
2019-01-17T17:11:28.373Z,4.05
2019-01-17T17:13:57.053Z,3.72
2019-01-17T17:16:25.439Z,3.72
2019-01-17T17:18:53.823Z,3.90
2019-01-17T17:21:22.221Z,3.40
2019-01-17T17:23:50.605Z,4.03
2019-01-17T17:26:18.989Z,4.60
2019-01-17T17:28:47.509Z,4.33
2019-01-17T17:31:15.938Z,3.98
2019-01-17T17:33:44.326Z,3.50
2019-01-17T17:36:12.743Z,3.80
2019-01-17T17:38:41.133Z,3.90
2019-01-17T17:41:09.531Z,3.10
2019-01-17T17:43:37.914Z,2.95
2019-01-17T17:46:06.367Z,3.25
2019-01-17T17:48:34.778Z,4.00
2019-01-17T17:51:10.186Z,3.50
2019-01-17T17:53:38.579Z,3.50
2019-01-17T17:56:07.380Z,3.40
2019-01-17T17:58:35.852Z,3.83
2019-01-17T18:03:53.394Z,4.00
2019-01-17T18:06:22.045Z,4.20
2019-01-17T18:08:50.431Z,4.60
2019-01-17T18:11:18.824Z,5.47
2019-01-17T18:13:47.220Z,5.65
2019-01-17T18:16:15.611Z,5.30
2019-01-17T18:18:44.035Z,5.12
2019-01-17T18:21:12.497Z,6.17
2019-01-17T18:23:41.198Z,7.25
2019-01-17T18:26:09.882Z,6.42
2019-01-17T18:28:38.271Z,6.15
2019-01-17T18:31:06.669Z,5.45
2019-01-17T18:33:35.069Z,6.17
2019-01-17T18:36:03.706Z,8.35
2019-01-17T18:38:32.115Z,6.40
2019-01-17T18:41:00.499Z,6.55
2019-01-17T18:43:28.880Z,6.53
2019-01-17T18:45:57.698Z,6.90
2019-01-17T18:48:26.184Z,7.10
2019-01-17T18:50:54.673Z,6.90
2019-01-17T18:53:23.077Z,6.10
2019-01-17T18:55:51.531Z,7.00
2019-01-17T18:58:19.921Z,6.17
2019-01-17T19:00:48.388Z,7.08
2019-01-17T19:03:16.848Z,6.78
2019-01-17T19:05:45.580Z,6.80
2019-01-17T19:08:13.982Z,6.60
2019-01-17T19:10:42.510Z,6.30
2019-01-17T19:13:10.894Z,6.37
2019-01-17T19:15:39.303Z,6.20
2019-01-17T19:18:07.691Z,6.35
2019-01-17T19:20:37.647Z,6.47
2019-01-17T19:23:05.952Z,6.40
2019-01-17T19:25:34.338Z,6.75
2019-01-17T19:28:03.037Z,7.45
2019-01-17T19:30:31.580Z,6.70
2019-01-17T19:33:00.044Z,7.15
2019-01-17T19:35:28.890Z,7.45
2019-01-17T19:37:57.577Z,7.72
2019-01-17T19:40:28.502Z,7.80
2019-01-17T19:42:56.960Z,7.28
2019-01-17T19:45:25.679Z,7.40
2019-01-17T19:47:54.472Z,8.48
2019-01-17T19:50:28.231Z,7.80
2019-01-17T19:52:56.778Z,8.45
2019-01-17T19:55:26.298Z,7.87
2019-01-17T19:57:54.951Z,8.15
2019-01-17T20:00:23.424Z,7.87
2019-01-17T20:02:52.222Z,7.60
2019-01-17T20:05:26.532Z,7.75
2019-01-17T20:07:55.231Z,8.38
2019-01-17T20:10:28.964Z,8.18
2019-01-17T20:12:57.511Z,8.15
2019-01-17T20:15:26.304Z,8.50
2019-01-17T20:17:54.829Z,8.03
2019-01-17T20:20:23.313Z,7.55
2019-01-17T20:22:51.703Z,8.85
2019-01-17T20:25:20.427Z,7.40
2019-01-17T20:27:48.831Z,6.67
2019-01-17T20:30:19.930Z,7.20
2019-01-17T20:32:48.655Z,7.40
2019-01-17T20:35:17.422Z,7.12
2019-01-17T20:37:46.212Z,8.43
2019-01-17T20:40:17.340Z,7.85
2019-01-17T20:42:45.737Z,7.53
2019-01-17T20:45:14.150Z,7.97
2019-01-17T20:47:42.671Z,7.72
2019-01-17T20:50:14.410Z,6.95
2019-01-17T20:52:42.894Z,6.35
2019-01-17T20:55:12.325Z,6.90
2019-01-17T20:57:41.390Z,7.00
2019-01-17T21:00:20.077Z,7.17
2019-01-17T21:02:48.540Z,7.00
2019-01-17T21:05:17.327Z,7.08
2019-01-17T21:07:45.724Z,7.05
2019-01-17T21:10:16.155Z,6.60
2019-01-17T21:12:44.536Z,6.10
2019-01-17T21:15:14.577Z,6.20
2019-01-17T21:17:43.030Z,6.22
2019-01-17T21:20:14.882Z,5.83
2019-01-17T21:22:43.281Z,5.67
2019-01-17T21:25:14.672Z,5.83
2019-01-17T21:27:43.379Z,5.22
2019-01-17T21:30:20.621Z,6.17
2019-01-17T21:32:49.022Z,5.58
2019-01-17T21:35:17.412Z,5.58
2019-01-17T21:37:45.797Z,5.60
2019-01-17T21:40:19.510Z,6.00
2019-01-17T21:42:47.958Z,5.42
2019-01-17T21:45:17.986Z,5.30
2019-01-17T21:47:46.385Z,4.97
2019-01-17T21:50:17.839Z,5.60
2019-01-17T21:52:46.243Z,5.80
2019-01-17T21:55:14.630Z,5.75
2019-01-17T21:57:43.017Z,5.80
2019-01-17T22:00:17.155Z,5.75
2019-01-17T22:02:45.544Z,6.15
2019-01-17T22:05:13.996Z,6.35
2019-01-17T22:07:42.454Z,7.20
2019-01-17T22:10:13.874Z,6.30
2019-01-17T22:12:42.264Z,5.85
2019-01-17T22:15:14.106Z,6.53
2019-01-17T22:17:42.493Z,7.47
2019-01-17T22:20:12.523Z,6.85
2019-01-17T22:22:41.195Z,6.20
2019-01-17T22:25:12.421Z,6.95
2019-01-17T22:27:40.879Z,6.78
2019-01-17T22:30:15.231Z,6.45
2019-01-17T22:32:43.616Z,7.22
2019-01-17T22:35:12.075Z,7.75
2019-01-17T22:37:40.479Z,7.40
2019-01-17T22:40:12.245Z,6.62
2019-01-17T22:42:40.633Z,7.55
2019-01-17T22:45:15.245Z,7.08
2019-01-17T22:47:43.930Z,7.53
2019-01-17T22:50:19.295Z,6.78
2019-01-17T22:52:48.819Z,7.05
2019-01-17T22:55:17.459Z,7.35
2019-01-17T22:57:45.866Z,7.40
2019-01-17T23:00:30.761Z,7.08
2019-01-17T23:02:59.155Z,7.87
2019-01-17T23:05:27.541Z,8.13
2019-01-17T23:07:55.951Z,8.40
2019-01-17T23:10:24.332Z,6.97
2019-01-17T23:12:52.715Z,8.15
2019-01-17T23:15:21.116Z,8.60
2019-01-17T23:17:49.764Z,8.38
2019-01-17T23:20:18.456Z,7.97
2019-01-17T23:22:46.846Z,8.70
2019-01-17T23:25:15.518Z,9.73
2019-01-17T23:27:43.920Z,9.35
2019-01-17T23:30:15.660Z,8.30
2019-01-17T23:32:44.020Z,8.63
2019-01-17T23:35:12.417Z,9.08
2019-01-17T23:37:40.804Z,9.33
2019-01-17T23:40:10.854Z,8.80
2019-01-17T23:42:39.234Z,8.18
2019-01-17T23:45:08.768Z,7.92
2019-01-17T23:47:37.159Z,8.20
2019-01-17T23:50:08.309Z,8.20
2019-01-17T23:52:36.692Z,7.78
2019-01-17T23:55:06.427Z,8.10
2019-01-17T23:57:34.883Z,7.58
